Em Athens — V7US8 — position and weather

sailwx.info

Track history (hours):
 
Tides and Currents Weather Stations Pressure Air Temp Water Temp Dewpoint Dewpoint Depression Visibility Wind Speed Wind Dir Waves Ship Positions

Em Athens

Last reported at 2014-Sep-10 02:34 UTC. Time now 2014-Oct-01 18:29 UTC.
Position S 36°01' E 175°40'.
Warning: this ship's position is 21 days out of date.

; draft 8.6 m.

Type: Ship. MMSI: 538004019.

Date/timePositionNaut miles runAvg speedWind from/ knotsBaromVisibWave heightAir tempDewpointWater temp
2014-Sep-10 02:34S 36°01' E 175°40'  
2014-Sep-07 04:24S 39°02' E 149°30'1619.3
2014-Sep-07 03:34S 39°04' E 149°09'1919.0
2014-Sep-07 02:33S 39°07' E 148°45'2418.7
2014-Sep-07 01:16S 39°11' E 148°14'1619.7
2014-Sep-07 00:27S 39°13' E 147°53'1719.1
2014-Sep-06 23:34S 39°15' E 147°32'1918.9
2014-Sep-06 22:33S 39°18' E 147°08'1818.0
2014-Sep-06 21:33S 39°18' E 146°44'1818.0
2014-Sep-06 20:34S 39°19' E 146°21'1818.4
2014-Sep-06 19:34S 39°18' E 145°57'1817.8
2014-Sep-06 18:34S 39°12' E 145°36'1918.6
2014-Sep-06 17:33S 39°02' E 145°16'1918.5
2014-Sep-06 16:34S 38°54' E 144°55'11 0.4
2014-Sep-05 14:30S 38°47' E 144°44'3215.0
2014-Sep-05 12:22S 38°58' E 145°22'1315.6
2014-Sep-05 11:31S 39°03' E 145°38'1515.4
2014-Sep-05 10:33S 39°09' E 145°56'1515.3
2014-Sep-05 09:33S 39°12' E 146°15'1615.9
2014-Sep-05 08:33S 39°09' E 146°35'1916.4
2014-Sep-05 07:23S 39°06' E 146°60'1416.7
2014-Sep-05 06:33S 39°03' E 147°17'1716.5
2014-Sep-05 05:33S 38°59' E 147°38'  
2014-Sep-01 22:33S 33°15' E 152°11'1513.6
2014-Sep-01 21:26S 33°05' E 152°24'1416.3
2014-Sep-01 20:33S 32°55' E 152°37'1717.0
2014-Sep-01 19:33S 32°44' E 152°52'1717.3
2014-Sep-01 18:33S 32°33' E 153°08'1716.9
2014-Sep-01 17:33S 32°21' E 153°23'  
Track history (hours):
 
Tides and Currents Weather Stations Pressure Air Temp Water Temp Dewpoint Dewpoint Depression Visibility Wind Speed Wind Dir Waves Ship Positions

Em Athens

Last reported at 2014-Sep-10 02:34 UTC. Time now 2014-Oct-01 18:29 UTC.
Position S 36°01' E 175°40'.
Warning: this ship's position is 21 days out of date.

; draft 8.6 m.

Type: Ship. MMSI: 538004019.

Date/timePositionNaut miles runAvg speedWind from/ knotsBaromVisibWave heightAir tempDewpointWater temp
2014-Sep-10 02:34S 36°01' E 175°40'  
2014-Sep-07 04:24S 39°02' E 149°30'1619.3
2014-Sep-07 03:34S 39°04' E 149°09'1919.0
2014-Sep-07 02:33S 39°07' E 148°45'2418.7
2014-Sep-07 01:16S 39°11' E 148°14'1619.7
2014-Sep-07 00:27S 39°13' E 147°53'1719.1
2014-Sep-06 23:34S 39°15' E 147°32'1918.9
2014-Sep-06 22:33S 39°18' E 147°08'1818.0
2014-Sep-06 21:33S 39°18' E 146°44'1818.0
2014-Sep-06 20:34S 39°19' E 146°21'1818.4
2014-Sep-06 19:34S 39°18' E 145°57'1817.8
2014-Sep-06 18:34S 39°12' E 145°36'1918.6
2014-Sep-06 17:33S 39°02' E 145°16'1918.5
2014-Sep-06 16:34S 38°54' E 144°55'11 0.4
2014-Sep-05 14:30S 38°47' E 144°44'3215.0
2014-Sep-05 12:22S 38°58' E 145°22'1315.6
2014-Sep-05 11:31S 39°03' E 145°38'1515.4
2014-Sep-05 10:33S 39°09' E 145°56'1515.3
2014-Sep-05 09:33S 39°12' E 146°15'1615.9
2014-Sep-05 08:33S 39°09' E 146°35'1916.4
2014-Sep-05 07:23S 39°06' E 146°60'1416.7
2014-Sep-05 06:33S 39°03' E 147°17'1716.5
2014-Sep-05 05:33S 38°59' E 147°38'  
2014-Sep-01 22:33S 33°15' E 152°11'1513.6
2014-Sep-01 21:26S 33°05' E 152°24'1416.3
2014-Sep-01 20:33S 32°55' E 152°37'1717.0
2014-Sep-01 19:33S 32°44' E 152°52'1717.3
2014-Sep-01 18:33S 32°33' E 153°08'1716.9
2014-Sep-01 17:33S 32°21' E 153°23'  

Dump ship's entire track history